Time;durP1;ratioP1;P1;durP2;ratioP2;P2;SDS_P1;SDS_P2;PMS_P1;PMS_P2;Temp;Humidity;BMP_temperature;BMP_pressure;BME280_temperature;BME280_humidity;BME280_pressure;Samples;Min_cycle;Max_cycle;Signal;HPM_P1;HPM_P2
2021/10/14 00:01:53;;;;;;;2.60;2.40;;;;;;;19.98;62.37;101532.23;;;;-61
2021/10/14 00:04:53;;;;;;;2.64;2.38;;;;;;;19.97;62.24;101530.12;;;;-63
2021/10/14 00:07:53;;;;;;;2.83;2.41;;;;;;;19.95;62.37;101530.31;;;;-61
2021/10/14 00:10:53;;;;;;;2.95;2.39;;;;;;;19.94;62.37;101529.47;;;;-61
2021/10/14 00:13:53;;;;;;;2.63;2.40;;;;;;;19.94;62.40;101525.97;;;;-61
2021/10/14 00:16:53;;;;;;;2.68;2.39;;;;;;;19.93;62.38;101527.83;;;;-61
2021/10/14 00:19:53;;;;;;;2.45;2.25;;;;;;;19.92;62.40;101525.59;;;;-61
2021/10/14 00:22:53;;;;;;;3.01;2.50;;;;;;;19.91;62.45;101529.17;;;;-63
2021/10/14 00:25:53;;;;;;;2.61;2.40;;;;;;;19.90;62.51;101526.28;;;;-61
2021/10/14 00:28:53;;;;;;;2.50;2.30;;;;;;;19.88;62.61;101525.88;;;;-61
2021/10/14 00:31:53;;;;;;;3.01;2.41;;;;;;;19.88;62.49;101526.84;;;;-52
2021/10/14 00:34:53;;;;;;;2.61;2.41;;;;;;;19.86;62.46;101525.83;;;;-52
2021/10/14 00:37:53;;;;;;;2.61;2.41;;;;;;;19.87;62.45;101526.88;;;;-51
2021/10/14 00:40:53;;;;;;;2.47;2.27;;;;;;;19.85;62.52;101535.06;;;;-53
2021/10/14 00:43:53;;;;;;;2.41;2.21;;;;;;;19.84;62.41;101538.14;;;;-52
2021/10/14 00:46:53;;;;;;;2.51;2.31;;;;;;;19.86;62.46;101540.84;;;;-53
2021/10/14 00:49:53;;;;;;;3.05;2.40;;;;;;;19.84;62.52;101543.75;;;;-52
2021/10/14 00:52:54;;;;;;;2.45;2.25;;;;;;;19.83;62.49;101540.78;;;;-52
2021/10/14 00:55:53;;;;;;;2.73;2.51;;;;;;;19.83;62.48;101533.62;;;;-53
2021/10/14 00:58:53;;;;;;;2.52;2.32;;;;;;;19.81;62.47;101529.27;;;;-53
2021/10/14 01:01:53;;;;;;;2.41;2.21;;;;;;;19.80;62.59;101526.66;;;;-52
2021/10/14 01:04:55;;;;;;;2.54;2.34;;;;;;;19.78;62.52;101512.47;;;;-53
2021/10/14 01:07:53;;;;;;;2.60;2.40;;;;;;;19.78;62.54;101499.70;;;;-63
2021/10/14 01:10:53;;;;;;;2.41;2.21;;;;;;;19.77;62.44;101500.23;;;;-62
2021/10/14 01:13:53;;;;;;;2.44;2.22;;;;;;;19.78;62.47;101497.09;;;;-62
2021/10/14 01:16:53;;;;;;;2.52;2.27;;;;;;;19.78;62.51;101493.59;;;;-59
2021/10/14 01:19:53;;;;;;;2.52;2.32;;;;;;;19.76;62.59;101488.27;;;;-59
2021/10/14 01:22:53;;;;;;;2.46;2.26;;;;;;;19.76;62.57;101490.54;;;;-58
2021/10/14 01:25:53;;;;;;;2.67;2.31;;;;;;;19.74;62.62;101485.05;;;;-59
2021/10/14 01:28:53;;;;;;;2.59;2.39;;;;;;;19.74;62.63;101480.25;;;;-59
2021/10/14 01:31:53;;;;;;;2.49;2.29;;;;;;;19.74;62.62;101484.80;;;;-58
2021/10/14 01:34:53;;;;;;;2.44;2.24;;;;;;;19.71;62.57;101481.14;;;;-59
2021/10/14 01:37:53;;;;;;;2.35;2.15;;;;;;;19.71;62.57;101479.92;;;;-58
2021/10/14 01:40:53;;;;;;;2.48;2.28;;;;;;;19.71;62.67;101479.27;;;;-59
2021/10/14 01:43:53;;;;;;;2.46;2.26;;;;;;;19.69;62.65;101477.93;;;;-58
2021/10/14 01:46:53;;;;;;;2.30;2.10;;;;;;;19.69;62.47;101473.05;;;;-59
2021/10/14 01:49:53;;;;;;;2.36;2.16;;;;;;;19.68;62.57;101467.08;;;;-52
2021/10/14 01:52:53;;;;;;;2.36;2.16;;;;;;;19.68;62.53;101470.73;;;;-54
2021/10/14 01:55:53;;;;;;;2.59;2.37;;;;;;;19.67;62.63;101473.90;;;;-61
2021/10/14 01:58:53;;;;;;;2.53;2.33;;;;;;;19.66;62.68;101475.00;;;;-61
2021/10/14 02:01:53;;;;;;;2.53;2.33;;;;;;;19.66;62.73;101481.26;;;;-60
2021/10/14 02:04:53;;;;;;;2.35;2.15;;;;;;;19.64;62.64;101485.12;;;;-61
2021/10/14 02:07:53;;;;;;;2.44;2.24;;;;;;;19.63;62.71;101489.50;;;;-63
2021/10/14 02:10:53;;;;;;;2.31;2.11;;;;;;;19.64;62.67;101491.78;;;;-61
2021/10/14 02:13:53;;;;;;;2.51;2.31;;;;;;;19.62;62.71;101486.62;;;;-55
2021/10/14 02:16:53;;;;;;;2.42;2.22;;;;;;;19.61;62.76;101489.17;;;;-55
2021/10/14 02:19:53;;;;;;;2.55;2.21;;;;;;;19.62;62.52;101491.91;;;;-55
2021/10/14 02:22:53;;;;;;;2.36;2.16;;;;;;;19.61;62.54;101487.55;;;;-54
2021/10/14 02:25:53;;;;;;;2.26;2.06;;;;;;;19.61;62.61;101492.11;;;;-57
2021/10/14 02:28:53;;;;;;;2.38;2.18;;;;;;;19.59;62.72;101492.09;;;;-59
2021/10/14 02:31:54;;;;;;;2.41;2.21;;;;;;;19.58;62.69;101492.22;;;;-58
2021/10/14 02:34:56;;;;;;;2.23;2.03;;;;;;;19.57;62.68;101493.19;;;;-59
2021/10/14 02:37:53;;;;;;;2.37;2.17;;;;;;;19.57;62.67;101495.46;;;;-59
2021/10/14 02:40:53;;;;;;;2.27;2.07;;;;;;;19.57;62.63;101498.56;;;;-59
2021/10/14 02:43:53;;;;;;;2.38;2.17;;;;;;;19.56;62.71;101493.15;;;;-58
2021/10/14 02:46:53;;;;;;;2.52;2.32;;;;;;;19.56;62.67;101490.79;;;;-59
2021/10/14 02:49:53;;;;;;;2.41;2.21;;;;;;;19.56;62.58;101486.97;;;;-59
2021/10/14 02:52:53;;;;;;;2.30;2.10;;;;;;;19.57;62.55;101487.37;;;;-58
2021/10/14 02:55:53;;;;;;;2.31;2.11;;;;;;;19.57;62.50;101490.09;;;;-59
2021/10/14 02:58:53;;;;;;;2.51;2.31;;;;;;;19.57;62.49;101482.30;;;;-57
2021/10/14 03:01:53;;;;;;;2.41;2.17;;;;;;;19.56;62.52;101484.13;;;;-59
2021/10/14 03:04:53;;;;;;;2.29;2.09;;;;;;;19.54;62.51;101478.14;;;;-57
2021/10/14 03:07:53;;;;;;;2.24;2.04;;;;;;;19.54;62.55;101477.66;;;;-57
2021/10/14 03:10:54;;;;;;;2.47;2.24;;;;;;;19.52;62.59;101477.77;;;;-60
2021/10/14 03:13:53;;;;;;;2.26;2.07;;;;;;;19.52;62.54;101481.67;;;;-55
2021/10/14 03:16:53;;;;;;;2.29;2.09;;;;;;;19.53;62.50;101489.60;;;;-55
2021/10/14 03:19:53;;;;;;;2.33;2.13;;;;;;;19.52;62.53;101486.55;;;;-55
2021/10/14 03:22:53;;;;;;;2.27;2.08;;;;;;;19.52;62.48;101489.16;;;;-55
2021/10/14 03:25:53;;;;;;;2.39;2.19;;;;;;;19.52;62.45;101491.27;;;;-55
2021/10/14 03:28:55;;;;;;;2.34;2.14;;;;;;;19.51;62.48;101490.94;;;;-55
2021/10/14 03:31:53;;;;;;;2.17;2.00;;;;;;;19.50;62.49;101494.15;;;;-55
2021/10/14 03:34:53;;;;;;;2.67;2.18;;;;;;;19.51;62.49;101496.55;;;;-54
2021/10/14 03:37:53;;;;;;;2.37;2.17;;;;;;;19.51;62.53;101496.52;;;;-55
2021/10/14 03:40:53;;;;;;;2.31;2.10;;;;;;;19.50;62.45;101493.58;;;;-55
2021/10/14 03:43:53;;;;;;;2.39;2.10;;;;;;;19.51;62.46;101497.65;;;;-55
2021/10/14 03:46:53;;;;;;;2.19;1.99;;;;;;;19.50;62.41;101498.70;;;;-55
2021/10/14 03:49:53;;;;;;;2.28;2.08;;;;;;;19.49;62.45;101496.02;;;;-60
2021/10/14 03:52:53;;;;;;;2.35;2.15;;;;;;;19.49;62.40;101493.89;;;;-63
2021/10/14 03:55:53;;;;;;;2.21;2.02;;;;;;;19.47;62.47;101494.83;;;;-54
2021/10/14 03:58:53;;;;;;;2.33;2.13;;;;;;;19.48;62.44;101494.11;;;;-56
2021/10/14 04:01:53;;;;;;;2.02;1.84;;;;;;;19.48;62.42;101489.88;;;;-55
2021/10/14 04:04:53;;;;;;;2.31;2.11;;;;;;;19.48;62.40;101490.36;;;;-54
2021/10/14 04:07:53;;;;;;;2.21;2.01;;;;;;;19.48;62.40;101490.44;;;;-55
2021/10/14 04:10:53;;;;;;;2.18;1.98;;;;;;;19.46;62.43;101492.70;;;;-55
2021/10/14 04:13:53;;;;;;;2.38;2.18;;;;;;;19.47;62.42;101493.44;;;;-55
2021/10/14 04:16:53;;;;;;;2.15;1.95;;;;;;;19.47;62.40;101495.06;;;;-63
2021/10/14 04:19:53;;;;;;;2.27;2.07;;;;;;;19.45;62.42;101495.76;;;;-61
2021/10/14 04:22:54;;;;;;;2.27;2.07;;;;;;;19.46;62.42;101503.56;;;;-63
2021/10/14 04:25:53;;;;;;;2.21;2.01;;;;;;;19.44;62.46;101503.23;;;;-62
2021/10/14 04:28:53;;;;;;;2.30;2.10;;;;;;;19.45;62.39;101505.43;;;;-61
2021/10/14 04:31:53;;;;;;;2.05;1.92;;;;;;;19.44;62.46;101509.77;;;;-62
2021/10/14 04:34:53;;;;;;;2.23;2.03;;;;;;;19.43;62.50;101507.66;;;;-61
2021/10/14 04:37:53;;;;;;;2.22;2.02;;;;;;;19.42;62.47;101507.25;;;;-63
2021/10/14 04:40:53;;;;;;;2.18;1.98;;;;;;;19.41;62.54;101507.70;;;;-58
2021/10/14 04:43:53;;;;;;;2.22;2.03;;;;;;;19.42;62.49;101506.15;;;;-59
2021/10/14 04:46:53;;;;;;;2.10;1.90;;;;;;;19.40;62.51;101508.17;;;;-59
2021/10/14 04:49:53;;;;;;;2.13;1.93;;;;;;;19.40;62.49;101506.88;;;;-55
2021/10/14 04:52:53;;;;;;;2.08;1.95;;;;;;;19.39;62.56;101503.83;;;;-55
2021/10/14 04:55:53;;;;;;;2.24;2.04;;;;;;;19.39;62.57;101500.48;;;;-55
2021/10/14 04:58:53;;;;;;;1.99;1.87;;;;;;;19.37;62.60;101497.44;;;;-55
2021/10/14 05:01:53;;;;;;;2.67;2.02;;;;;;;19.38;62.52;101490.56;;;;-55
2021/10/14 05:04:53;;;;;;;2.25;2.05;;;;;;;19.38;62.59;101489.75;;;;-63
2021/10/14 05:07:53;;;;;;;2.19;2.00;;;;;;;19.39;62.56;101485.37;;;;-61
2021/10/14 05:10:53;;;;;;;3.31;2.00;;;;;;;19.38;62.60;101487.52;;;;-61
2021/10/14 05:13:53;;;;;;;3.90;1.97;;;;;;;19.35;62.64;101494.38;;;;-61
2021/10/14 05:16:53;;;;;;;2.25;1.95;;;;;;;19.37;62.21;101498.25;;;;-59
2021/10/14 05:19:53;;;;;;;2.39;2.19;;;;;;;19.34;61.25;101499.86;;;;-60
2021/10/14 05:22:53;;;;;;;4.74;2.40;;;;;;;19.36;60.14;101502.38;;;;-60
2021/10/14 05:25:53;;;;;;;3.25;2.79;;;;;;;19.14;58.11;101496.48;;;;-62
2021/10/14 05:28:53;;;;;;;3.75;3.17;;;;;;;19.06;57.55;101497.34;;;;-61
2021/10/14 05:31:53;;;;;;;5.10;2.75;;;;;;;19.09;58.57;101499.22;;;;-60
2021/10/14 05:34:53;;;;;;;5.03;2.60;;;;;;;19.12;59.38;101505.61;;;;-60
2021/10/14 05:37:53;;;;;;;4.46;2.55;;;;;;;19.14;59.64;101505.51;;;;-61
2021/10/14 05:40:53;;;;;;;4.65;2.35;;;;;;;19.16;59.99;101509.13;;;;-61
2021/10/14 05:43:53;;;;;;;3.06;2.31;;;;;;;19.17;60.19;101509.17;;;;-61
2021/10/14 05:46:53;;;;;;;3.02;2.29;;;;;;;19.18;60.36;101513.73;;;;-60
2021/10/14 05:49:53;;;;;;;4.33;2.29;;;;;;;19.18;60.54;101515.69;;;;-61
2021/10/14 05:52:53;;;;;;;4.09;2.23;;;;;;;19.19;60.66;101515.20;;;;-61
2021/10/14 05:55:53;;;;;;;3.25;2.35;;;;;;;19.19;60.79;101513.49;;;;-52
2021/10/14 05:58:53;;;;;;;4.05;2.28;;;;;;;19.20;60.85;101512.56;;;;-61
2021/10/14 06:01:53;;;;;;;3.41;2.21;;;;;;;19.20;60.88;101511.75;;;;-61
2021/10/14 06:04:53;;;;;;;3.77;2.44;;;;;;;19.20;61.00;101509.55;;;;-60
2021/10/14 06:07:53;;;;;;;2.75;2.33;;;;;;;19.21;61.04;101511.84;;;;-61
2021/10/14 06:10:53;;;;;;;12.49;2.61;;;;;;;19.20;61.15;101511.59;;;;-61
2021/10/14 06:13:53;;;;;;;6.18;2.34;;;;;;;19.20;61.25;101509.72;;;;-60
2021/10/14 06:16:53;;;;;;;3.21;2.30;;;;;;;19.21;61.29;101512.00;;;;-56
2021/10/14 06:19:53;;;;;;;6.18;2.29;;;;;;;19.21;61.33;101513.88;;;;-59
2021/10/14 06:22:53;;;;;;;3.78;2.22;;;;;;;19.21;61.41;101513.87;;;;-59
2021/10/14 06:25:55;;;;;;;4.56;2.17;;;;;;;19.21;61.45;101510.53;;;;-59
2021/10/14 06:28:53;;;;;;;2.61;2.23;;;;;;;19.21;61.52;101517.12;;;;-59
2021/10/14 06:31:53;;;;;;;3.64;2.15;;;;;;;19.21;61.54;101510.45;;;;-60
2021/10/14 06:34:53;;;;;;;2.18;1.97;;;;;;;19.21;61.59;101510.70;;;;-60
2021/10/14 06:37:53;;;;;;;3.42;2.23;;;;;;;19.21;61.70;101509.88;;;;-60
2021/10/14 06:40:53;;;;;;;4.89;2.28;;;;;;;19.21;61.70;101510.38;;;;-59
2021/10/14 06:43:53;;;;;;;2.34;2.14;;;;;;;19.22;61.68;101520.73;;;;-60
2021/10/14 06:46:53;;;;;;;5.91;2.23;;;;;;;19.21;61.70;101525.41;;;;-60
2021/10/14 06:49:53;;;;;;;3.40;2.12;;;;;;;19.22;61.70;101525.85;;;;-60
2021/10/14 06:52:53;;;;;;;3.15;2.04;;;;;;;19.21;61.75;101524.92;;;;-59
2021/10/14 06:55:53;;;;;;;2.23;2.03;;;;;;;19.22;61.75;101527.64;;;;-61
2021/10/14 06:58:53;;;;;;;2.34;2.14;;;;;;;19.21;61.77;101528.50;;;;-59
2021/10/14 07:01:53;;;;;;;2.30;2.10;;;;;;;19.21;61.75;101526.30;;;;-59
2021/10/14 07:04:53;;;;;;;2.33;2.03;;;;;;;19.21;61.78;101517.04;;;;-60
2021/10/14 07:07:53;;;;;;;2.31;2.08;;;;;;;19.21;61.87;101520.12;;;;-59
2021/10/14 07:10:53;;;;;;;2.71;2.07;;;;;;;19.21;61.83;101516.64;;;;-59
2021/10/14 07:13:53;;;;;;;2.21;2.01;;;;;;;19.21;61.83;101509.64;;;;-60
2021/10/14 07:16:53;;;;;;;2.33;2.13;;;;;;;19.20;61.90;101510.61;;;;-59
2021/10/14 07:19:53;;;;;;;3.05;2.05;;;;;;;19.21;61.83;101511.51;;;;-60
2021/10/14 07:22:53;;;;;;;3.25;2.09;;;;;;;19.21;61.88;101512.08;;;;-56
2021/10/14 07:25:53;;;;;;;2.66;2.08;;;;;;;19.20;61.91;101511.75;;;;-57
2021/10/14 07:28:53;;;;;;;2.29;2.09;;;;;;;19.21;61.91;101513.95;;;;-57
2021/10/14 07:31:53;;;;;;;2.13;1.94;;;;;;;19.19;61.98;101512.84;;;;-57
2021/10/14 07:34:53;;;;;;;3.96;2.10;;;;;;;19.20;61.97;101508.74;;;;-57
2021/10/14 07:37:53;;;;;;;2.23;2.03;;;;;;;19.20;62.02;101509.23;;;;-57
2021/10/14 07:40:53;;;;;;;2.17;1.97;;;;;;;19.18;62.02;101508.04;;;;-57
2021/10/14 07:43:53;;;;;;;2.08;1.88;;;;;;;19.19;62.04;101513.66;;;;-57
2021/10/14 07:46:53;;;;;;;2.47;2.03;;;;;;;19.19;62.00;101513.17;;;;-57
2021/10/14 07:49:53;;;;;;;4.39;2.03;;;;;;;19.19;62.01;101517.64;;;;-60
2021/10/14 07:52:53;;;;;;;2.23;2.03;;;;;;;19.18;62.11;101523.08;;;;-61
2021/10/14 07:55:53;;;;;;;2.19;1.99;;;;;;;19.20;62.08;101526.78;;;;-60
2021/10/14 07:58:53;;;;;;;2.33;2.10;;;;;;;19.19;62.06;101525.69;;;;-61
2021/10/14 08:01:53;;;;;;;2.07;1.93;;;;;;;19.19;62.10;101531.20;;;;-60
2021/10/14 08:04:55;;;;;;;2.23;2.03;;;;;;;19.19;62.02;101531.21;;;;-60
2021/10/14 08:07:53;;;;;;;2.87;1.99;;;;;;;19.18;62.07;101522.51;;;;-57
2021/10/14 08:10:54;;;;;;;2.25;2.00;;;;;;;19.19;62.12;101522.35;;;;-57
2021/10/14 08:13:54;;;;;;;2.32;2.05;;;;;;;19.19;62.09;101517.06;;;;-60
2021/10/14 08:16:53;;;;;;;2.19;1.99;;;;;;;19.19;62.08;101523.17;;;;-60
2021/10/14 08:19:53;;;;;;;2.18;1.98;;;;;;;19.16;62.18;101532.13;;;;-62
2021/10/14 08:22:53;;;;;;;2.17;1.97;;;;;;;19.18;62.08;101536.16;;;;-62
2021/10/14 08:25:53;;;;;;;2.30;2.10;;;;;;;19.16;62.18;101533.75;;;;-61
2021/10/14 08:28:53;;;;;;;2.27;2.07;;;;;;;19.16;62.18;101526.69;;;;-60
2021/10/14 08:31:53;;;;;;;2.37;2.05;;;;;;;19.16;62.15;101524.09;;;;-60
2021/10/14 08:34:53;;;;;;;2.20;2.00;;;;;;;19.15;62.18;101518.43;;;;-60
2021/10/14 08:37:53;;;;;;;2.21;2.00;;;;;;;19.16;62.18;101519.78;;;;-60
2021/10/14 08:40:53;;;;;;;2.31;2.11;;;;;;;19.16;62.17;101523.44;;;;-61
2021/10/14 08:43:53;;;;;;;2.17;1.97;;;;;;;19.16;62.24;101520.50;;;;-60
2021/10/14 08:46:53;;;;;;;3.27;2.03;;;;;;;19.18;62.19;101520.08;;;;-61
2021/10/14 08:49:55;;;;;;;3.08;2.03;;;;;;;19.16;62.47;101522.63;;;;-59
2021/10/14 08:52:53;;;;;;;5.55;2.06;;;;;;;19.17;62.67;101516.37;;;;-57
2021/10/14 08:55:53;;;;;;;2.21;1.99;;;;;;;19.18;62.85;101514.87;;;;-57
2021/10/14 08:58:53;;;;;;;2.92;1.90;;;;;;;19.20;62.78;101517.92;;;;-57
2021/10/14 09:01:53;;;;;;;2.44;2.12;;;;;;;19.22;62.88;101522.92;;;;-58
2021/10/14 09:04:55;;;;;;;2.10;1.90;;;;;;;19.24;62.88;101522.91;;;;-57
2021/10/14 09:07:53;;;;;;;2.50;1.99;;;;;;;19.25;62.88;101516.66;;;;-56
2021/10/14 09:10:53;;;;;;;2.74;2.01;;;;;;;19.28;62.80;101519.75;;;;-55
2021/10/14 09:13:53;;;;;;;9.95;2.38;;;;;;;19.32;62.94;101521.63;;;;-56
2021/10/14 09:16:53;;;;;;;3.45;2.25;;;;;;;19.33;62.48;101517.91;;;;-57
2021/10/14 09:19:53;;;;;;;5.48;2.11;;;;;;;19.34;62.94;101514.69;;;;-58
2021/10/14 09:22:53;;;;;;;7.55;2.19;;;;;;;19.35;62.83;101514.53;;;;-54
2021/10/14 09:25:53;;;;;;;3.40;2.11;;;;;;;19.35;62.98;101511.37;;;;-57
2021/10/14 09:28:53;;;;;;;5.94;2.33;;;;;;;19.36;63.00;101510.23;;;;-59
2021/10/14 09:31:53;;;;;;;3.03;2.22;;;;;;;19.36;63.05;101511.90;;;;-60
2021/10/14 09:34:53;;;;;;;2.60;1.85;;;;;;;19.37;62.91;101509.22;;;;-58
2021/10/14 09:37:53;;;;;;;7.24;2.18;;;;;;;19.36;63.07;101507.34;;;;-58
2021/10/14 09:40:53;;;;;;;3.23;2.10;;;;;;;19.36;63.04;101503.28;;;;-58
2021/10/14 09:43:53;;;;;;;2.87;2.20;;;;;;;19.39;62.98;101502.85;;;;-55
2021/10/14 09:46:53;;;;;;;3.41;2.05;;;;;;;19.42;62.92;101498.43;;;;-60
2021/10/14 09:49:53;;;;;;;3.53;2.16;;;;;;;19.42;62.95;101499.65;;;;-53
2021/10/14 09:52:53;;;;;;;6.09;2.18;;;;;;;19.41;63.03;101499.80;;;;-59
2021/10/14 09:55:53;;;;;;;4.47;2.19;;;;;;;19.42;63.04;101500.09;;;;-56
2021/10/14 09:58:53;;;;;;;4.05;2.36;;;;;;;19.43;62.94;101502.05;;;;-57
2021/10/14 10:01:53;;;;;;;4.17;2.03;;;;;;;19.44;63.00;101501.73;;;;-56
2021/10/14 10:04:53;;;;;;;4.93;2.35;;;;;;;19.46;63.04;101495.52;;;;-58
2021/10/14 10:07:53;;;;;;;2.98;2.10;;;;;;;19.42;63.07;101495.59;;;;-58
2021/10/14 10:10:53;;;;;;;9.08;2.19;;;;;;;19.41;62.94;101491.92;;;;-59
2021/10/14 10:13:53;;;;;;;3.47;2.09;;;;;;;19.39;62.97;101494.16;;;;-50
2021/10/14 10:16:53;;;;;;;3.98;2.17;;;;;;;19.39;62.88;101490.98;;;;-50
2021/10/14 10:19:53;;;;;;;4.02;2.13;;;;;;;19.38;62.92;101490.81;;;;-50
2021/10/14 10:22:53;;;;;;;2.52;2.05;;;;;;;19.37;62.93;101486.62;;;;-50
2021/10/14 10:25:53;;;;;;;2.68;2.02;;;;;;;19.38;62.87;101485.33;;;;-50
2021/10/14 10:28:53;;;;;;;3.42;1.95;;;;;;;19.38;62.82;101491.51;;;;-50
2021/10/14 10:31:54;;;;;;;2.71;2.05;;;;;;;19.35;62.92;101487.96;;;;-55
2021/10/14 10:34:56;;;;;;;2.50;1.91;;;;;;;19.35;62.85;101486.98;;;;-55
2021/10/14 10:37:53;;;;;;;3.17;2.07;;;;;;;19.35;62.87;101478.69;;;;-51
2021/10/14 10:40:53;;;;;;;2.25;1.85;;;;;;;19.35;62.87;101473.16;;;;-51
2021/10/14 10:43:53;;;;;;;2.77;2.08;;;;;;;19.34;62.87;101476.30;;;;-52
2021/10/14 10:46:53;;;;;;;3.81;2.03;;;;;;;19.35;62.84;101469.50;;;;-52
2021/10/14 10:49:53;;;;;;;2.86;1.93;;;;;;;19.34;62.85;101473.53;;;;-55
2021/10/14 10:52:53;;;;;;;3.16;2.15;;;;;;;19.32;62.86;101473.03;;;;-55
2021/10/14 10:55:53;;;;;;;2.21;1.90;;;;;;;19.31;62.89;101470.38;;;;-52
2021/10/14 10:58:53;;;;;;;2.63;2.08;;;;;;;19.31;62.87;101474.28;;;;-51
2021/10/14 11:01:53;;;;;;;2.41;1.99;;;;;;;19.32;62.79;101467.39;;;;-52
2021/10/14 11:04:53;;;;;;;2.27;1.98;;;;;;;19.31;62.83;101459.42;;;;-52
2021/10/14 11:07:53;;;;;;;2.55;2.05;;;;;;;19.29;62.84;101453.77;;;;-52
2021/10/14 11:10:53;;;;;;;2.35;1.95;;;;;;;19.30;62.82;101450.76;;;;-50
2021/10/14 11:13:53;;;;;;;3.27;2.05;;;;;;;19.30;62.85;101450.59;;;;-52
2021/10/14 11:16:54;;;;;;;2.25;1.79;;;;;;;19.31;62.80;101447.14;;;;-59
2021/10/14 11:19:53;;;;;;;1.88;1.75;;;;;;;19.29;62.82;101446.94;;;;-54
2021/10/14 11:22:53;;;;;;;2.73;2.18;;;;;;;19.29;62.82;101441.16;;;;-55
2021/10/14 11:25:53;;;;;;;2.13;1.88;;;;;;;19.28;62.83;101434.90;;;;-54
2021/10/14 11:28:53;;;;;;;3.34;1.99;;;;;;;19.28;62.85;101426.12;;;;-55
2021/10/14 11:31:55;;;;;;;2.76;1.90;;;;;;;19.28;62.83;101425.55;;;;-55
2021/10/14 11:34:53;;;;;;;2.56;1.94;;;;;;;19.28;62.85;101425.03;;;;-52
2021/10/14 11:37:53;;;;;;;2.04;1.85;;;;;;;19.27;62.87;101424.86;;;;-52
2021/10/14 11:40:53;;;;;;;2.11;1.86;;;;;;;19.27;62.82;101413.57;;;;-52
2021/10/14 11:43:53;;;;;;;2.56;1.92;;;;;;;19.27;62.89;101412.59;;;;-52
2021/10/14 11:47:13;;;;;;;2.33;1.99;;;;;;;19.28;62.84;101402.87;;;;-52
2021/10/14 11:49:53;;;;;;;3.41;1.93;;;;;;;19.32;62.78;101399.15;;;;-58
2021/10/14 11:52:53;;;;;;;2.87;2.07;;;;;;;19.31;62.81;101397.32;;;;-62
2021/10/14 11:55:53;;;;;;;3.91;1.91;;;;;;;19.32;62.81;101392.89;;;;-58
2021/10/14 11:58:54;;;;;;;2.77;1.76;;;;;;;19.31;62.95;101386.59;;;;-60
2021/10/14 12:01:53;;;;;;;3.81;2.13;;;;;;;19.33;62.90;101388.67;;;;-50
2021/10/14 12:04:53;;;;;;;3.11;1.82;;;;;;;19.33;63.02;101379.89;;;;-49
2021/10/14 12:07:56;;;;;;;2.64;1.80;;;;;;;19.34;63.10;101379.66;;;;-51
2021/10/14 12:10:55;;;;;;;2.40;1.90;;;;;;;19.36;62.94;101381.77;;;;-58
2021/10/14 12:13:53;;;;;;;2.67;1.82;;;;;;;19.35;63.03;101373.34;;;;-57
2021/10/14 12:16:53;;;;;;;3.07;1.89;;;;;;;19.34;62.99;101371.20;;;;-58
2021/10/14 12:19:53;;;;;;;2.82;1.87;;;;;;;19.33;63.01;101367.78;;;;-58
2021/10/14 12:22:53;;;;;;;7.09;2.07;;;;;;;19.33;63.02;101358.67;;;;-58
2021/10/14 12:25:53;;;;;;;2.07;1.82;;;;;;;19.34;63.02;101357.91;;;;-53
2021/10/14 12:28:53;;;;;;;2.44;1.93;;;;;;;19.36;63.06;101359.66;;;;-58
2021/10/14 12:31:53;;;;;;;3.92;1.91;;;;;;;19.37;63.08;101358.67;;;;-57
2021/10/14 12:34:53;;;;;;;3.08;1.85;;;;;;;19.37;63.04;101355.43;;;;-58
2021/10/14 12:37:53;;;;;;;5.61;1.90;;;;;;;19.39;63.07;101358.80;;;;-56
2021/10/14 12:40:53;;;;;;;4.85;1.79;;;;;;;19.39;63.09;101358.48;;;;-55
2021/10/14 12:43:55;;;;;;;2.41;1.89;;;;;;;19.40;63.12;101360.23;;;;-57
2021/10/14 12:47:01;;;;;;;3.46;1.70;;;;;;;19.41;63.15;101354.30;;;;-59
2021/10/14 12:50:12;;;;;;;2.54;1.67;;;;;;;19.40;63.24;101345.92;;;;-52
2021/10/14 12:52:53;;;;;;;3.48;1.91;;;;;;;19.41;63.28;101346.48;;;;-51
2021/10/14 12:55:53;;;;;;;3.38;1.79;;;;;;;19.40;63.35;101343.53;;;;-53
2021/10/14 12:58:53;;;;;;;2.97;1.87;;;;;;;19.41;63.33;101339.58;;;;-57
2021/10/14 13:01:55;;;;;;;3.98;1.81;;;;;;;19.41;63.41;101339.50;;;;-67
2021/10/14 13:04:53;;;;;;;2.23;1.81;;;;;;;19.42;63.39;101338.28;;;;-59
2021/10/14 13:07:53;;;;;;;2.45;1.94;;;;;;;19.43;63.38;101334.66;;;;-58
2021/10/14 13:10:53;;;;;;;2.12;1.69;;;;;;;19.43;63.40;101325.31;;;;-60
2021/10/14 13:13:53;;;;;;;1.95;1.71;;;;;;;19.43;63.47;101322.39;;;;-59
2021/10/14 13:16:53;;;;;;;2.47;1.58;;;;;;;19.44;63.45;101317.03;;;;-59
2021/10/14 13:19:53;;;;;;;1.98;1.77;;;;;;;19.44;63.47;101313.98;;;;-53
2021/10/14 13:22:53;;;;;;;4.97;1.60;;;;;;;19.46;63.37;101308.86;;;;-58
2021/10/14 13:25:54;;;;;;;1.96;1.77;;;;;;;19.45;63.38;101304.63;;;;-52
2021/10/14 13:28:53;;;;;;;3.30;1.89;;;;;;;19.43;63.35;101300.03;;;;-55
2021/10/14 13:31:53;;;;;;;4.04;1.91;;;;;;;19.43;63.31;101296.13;;;;-56
2021/10/14 13:34:54;;;;;;;2.62;1.77;;;;;;;19.44;63.22;101290.94;;;;-54
2021/10/14 13:37:53;;;;;;;2.47;1.84;;;;;;;19.44;63.30;101288.61;;;;-55
2021/10/14 13:40:56;;;;;;;2.50;1.93;;;;;;;19.45;63.28;101286.99;;;;-57
2021/10/14 13:43:56;;;;;;;2.94;2.03;;;;;;;19.46;63.33;101284.47;;;;-52
2021/10/14 13:46:53;;;;;;;3.78;1.90;;;;;;;19.47;63.30;101282.97;;;;-54
2021/10/14 13:49:53;;;;;;;5.46;2.05;;;;;;;19.47;63.34;101283.12;;;;-50
2021/10/14 13:52:53;;;;;;;3.33;1.83;;;;;;;19.49;63.29;101278.86;;;;-56
2021/10/14 13:55:53;;;;;;;1.97;1.81;;;;;;;19.48;63.36;101270.61;;;;-58
2021/10/14 13:58:53;;;;;;;2.85;1.77;;;;;;;19.48;63.28;101264.27;;;;-56
2021/10/14 14:01:53;;;;;;;3.18;1.93;;;;;;;19.49;63.33;101260.73;;;;-47
2021/10/14 14:04:53;;;;;;;4.59;2.00;;;;;;;19.50;63.42;101253.98;;;;-54
2021/10/14 14:07:53;;;;;;;2.99;1.91;;;;;;;19.51;63.29;101255.97;;;;-51
2021/10/14 14:10:53;;;;;;;3.61;1.89;;;;;;;19.50;63.23;101252.36;;;;-60
2021/10/14 14:13:53;;;;;;;6.07;2.09;;;;;;;19.49;63.22;101252.92;;;;-58
2021/10/14 14:16:54;;;;;;;3.95;1.91;;;;;;;19.50;63.18;101251.71;;;;-59
2021/10/14 14:19:53;;;;;;;3.08;1.88;;;;;;;19.51;63.08;101251.42;;;;-59
2021/10/14 14:22:53;;;;;;;3.05;1.97;;;;;;;19.50;63.15;101246.83;;;;-61
2021/10/14 14:25:53;;;;;;;2.87;1.97;;;;;;;19.51;63.09;101244.27;;;;-58
2021/10/14 14:28:53;;;;;;;3.85;2.11;;;;;;;19.51;63.09;101240.09;;;;-59
2021/10/14 14:31:53;;;;;;;3.21;2.21;;;;;;;19.50;63.11;101235.05;;;;-54
2021/10/14 14:34:53;;;;;;;2.41;1.97;;;;;;;19.50;63.03;101232.03;;;;-58
2021/10/14 14:37:53;;;;;;;4.99;2.30;;;;;;;19.51;62.89;101231.91;;;;-62
2021/10/14 14:40:53;;;;;;;4.01;2.09;;;;;;;19.52;62.91;101222.23;;;;-61
2021/10/14 14:43:53;;;;;;;4.77;2.05;;;;;;;19.50;63.02;101219.11;;;;-61
2021/10/14 14:46:56;;;;;;;2.71;1.94;;;;;;;19.48;63.08;101218.58;;;;-61
2021/10/14 14:50:00;;;;;;;4.35;1.89;;;;;;;19.47;62.98;101217.12;;;;-61
2021/10/14 14:52:53;;;;;;;2.46;2.07;;;;;;;19.47;63.02;101217.52;;;;-61
2021/10/14 14:55:53;;;;;;;6.73;2.29;;;;;;;19.48;63.03;101214.44;;;;-58
2021/10/14 14:58:53;;;;;;;9.52;2.26;;;;;;;19.48;63.05;101213.22;;;;-58
2021/10/14 15:01:53;;;;;;;2.56;2.07;;;;;;;19.49;63.05;101210.48;;;;-55
2021/10/14 15:04:53;;;;;;;2.43;1.95;;;;;;;19.50;62.99;101210.25;;;;-58
2021/10/14 15:07:53;;;;;;;3.47;2.05;;;;;;;19.49;63.08;101206.67;;;;-53
2021/10/14 15:10:53;;;;;;;7.08;2.10;;;;;;;19.50;63.14;101202.28;;;;-54
2021/10/14 15:13:53;;;;;;;5.21;1.91;;;;;;;19.52;63.17;101202.73;;;;-54
2021/10/14 15:16:53;;;;;;;9.86;2.14;;;;;;;19.56;63.18;101202.47;;;;-53
2021/10/14 15:19:53;;;;;;;4.84;2.06;;;;;;;19.58;63.26;101206.81;;;;-50
2021/10/14 15:22:53;;;;;;;5.27;1.96;;;;;;;19.61;63.35;101202.66;;;;-55
2021/10/14 15:25:53;;;;;;;2.89;2.13;;;;;;;19.66;63.60;101200.13;;;;-51
2021/10/14 15:28:53;;;;;;;4.29;1.93;;;;;;;19.73;63.31;101194.34;;;;-53
2021/10/14 15:31:53;;;;;;;4.65;2.21;;;;;;;19.79;63.43;101193.30;;;;-52
2021/10/14 15:34:53;;;;;;;3.29;1.84;;;;;;;19.84;63.33;101189.17;;;;-55
2021/10/14 15:37:54;;;;;;;3.23;2.04;;;;;;;19.91;63.45;101189.92;;;;-49
2021/10/14 15:40:53;;;;;;;4.34;2.11;;;;;;;19.91;62.38;101191.31;;;;-50
2021/10/14 15:43:53;;;;;;;3.91;2.10;;;;;;;19.93;62.74;101192.00;;;;-57
2021/10/14 15:46:53;;;;;;;3.39;2.07;;;;;;;20.00;62.91;101190.71;;;;-55
2021/10/14 15:49:54;;;;;;;5.51;1.94;;;;;;;20.05;62.82;101193.41;;;;-51
2021/10/14 15:52:53;;;;;;;6.03;1.99;;;;;;;20.05;62.55;101188.69;;;;-53
2021/10/14 15:55:53;;;;;;;4.97;2.10;;;;;;;20.08;62.84;101190.27;;;;-51
2021/10/14 15:58:53;;;;;;;4.95;2.15;;;;;;;20.09;63.00;101186.88;;;;-49
2021/10/14 16:01:53;;;;;;;9.39;2.03;;;;;;;20.14;62.87;101187.44;;;;-51
2021/10/14 16:04:53;;;;;;;4.80;2.09;;;;;;;20.14;62.90;101185.41;;;;-51
2021/10/14 16:07:53;;;;;;;4.87;1.85;;;;;;;20.17;62.96;101184.53;;;;-51
2021/10/14 16:10:53;;;;;;;5.69;1.87;;;;;;;20.19;63.18;101184.11;;;;-50
2021/10/14 16:13:53;;;;;;;4.73;1.86;;;;;;;20.24;63.14;101184.66;;;;-51
2021/10/14 16:16:53;;;;;;;3.48;1.89;;;;;;;20.27;63.25;101185.42;;;;-51
2021/10/14 16:19:53;;;;;;;3.01;2.00;;;;;;;20.31;63.21;101186.78;;;;-50
2021/10/14 16:22:53;;;;;;;2.92;1.70;;;;;;;20.35;63.21;101184.57;;;;-49
2021/10/14 16:25:53;;;;;;;2.97;1.70;;;;;;;20.38;63.26;101184.88;;;;-50
2021/10/14 16:29:18;;;;;;;4.63;1.83;;;;;;;20.39;63.26;101180.23;;;;-49
2021/10/14 16:32:11;;;;;;;5.14;2.19;;;;;;;20.43;63.26;101181.43;;;;-49
2021/10/14 16:34:53;;;;;;;3.19;1.81;;;;;;;20.47;63.37;101175.95;;;;-51
2021/10/14 16:37:53;;;;;;;2.89;1.80;;;;;;;20.49;63.36;101176.79;;;;-55
2021/10/14 16:40:53;;;;;;;2.52;1.84;;;;;;;20.52;63.35;101170.80;;;;-51
2021/10/14 16:43:53;;;;;;;3.62;2.00;;;;;;;20.54;63.20;101167.89;;;;-53